Time;durP1;ratioP1;P1;durP2;ratioP2;P2;SDS_P1;SDS_P2;PMS_P1;PMS_P2;Temp;Humidity;BMP_temperature;BMP_pressure;BME280_temperature;BME280_humidity;BME280_pressure;Samples;Min_cycle;Max_cycle;Signal;HPM_P1;HPM_P2
2022/11/24 00:00:52;;;;;;;58.55;28.40;;;;;;;2.34;83.18;98328.41;1720941;83;21031;-44
2022/11/24 00:03:18;;;;;;;60.65;29.18;;;;;;;2.36;82.95;98332.24;1721185;83;21007;-52
2022/11/24 00:05:44;;;;;;;66.70;29.00;;;;;;;2.32;82.87;98328.92;1721165;83;21007;-48
2022/11/24 00:08:11;;;;;;;67.80;29.75;;;;;;;2.31;82.92;98332.44;1721358;83;21049;-48
2022/11/24 00:10:36;;;;;;;63.23;28.42;;;;;;;2.29;83.07;98333.78;1721419;83;21544;-47
2022/11/24 00:13:02;;;;;;;69.62;30.60;;;;;;;2.30;83.22;98332.02;1721195;83;20983;-51
2022/11/24 00:15:28;;;;;;;70.15;30.68;;;;;;;2.33;83.08;98337.53;1721243;83;21503;-52
2022/11/24 00:17:54;;;;;;;65.85;30.20;;;;;;;2.36;83.02;98337.44;1721228;83;21523;-52
2022/11/24 00:20:19;;;;;;;67.17;30.32;;;;;;;2.29;83.16;98344.16;1721217;83;21560;-52
2022/11/24 00:22:45;;;;;;;68.80;29.40;;;;;;;2.29;83.23;98348.05;1721212;83;21011;-52
2022/11/24 00:25:11;;;;;;;70.00;30.00;;;;;;;2.36;82.93;98346.05;1721233;83;21500;-45
2022/11/24 00:27:36;;;;;;;75.70;30.62;;;;;;;2.30;83.21;98345.83;1721323;83;21528;-57
2022/11/24 00:30:03;;;;;;;62.13;28.10;;;;;;;2.29;83.42;98348.05;1721170;83;21525;-50
2022/11/24 00:32:29;;;;;;;63.98;28.70;;;;;;;2.32;83.37;98348.84;1721600;83;21512;-51
2022/11/24 00:34:55;;;;;;;67.37;29.30;;;;;;;2.33;83.64;98347.91;1721158;83;21444;-54
2022/11/24 00:37:21;;;;;;;64.47;28.98;;;;;;;2.35;84.04;98352.16;1721169;83;21054;-45
2022/11/24 00:39:47;;;;;;;66.33;29.05;;;;;;;2.35;84.22;98339.62;1721204;83;21007;-48
2022/11/24 00:42:13;;;;;;;63.25;27.42;;;;;;;2.36;83.96;98345.22;1721257;83;21004;-52
2022/11/24 00:44:39;;;;;;;67.05;28.87;;;;;;;2.36;84.10;98340.03;1721153;83;21007;-53
2022/11/24 00:47:05;;;;;;;62.00;25.85;;;;;;;2.36;84.41;98338.27;1720597;83;21053;-50
2022/11/24 00:49:31;;;;;;;52.95;24.63;;;;;;;2.41;84.08;98340.70;1716287;83;20984;-47
2022/11/24 00:51:56;;;;;;;52.23;25.25;;;;;;;2.34;83.95;98337.48;1716278;83;21051;-50
2022/11/24 00:54:23;;;;;;;55.52;25.97;;;;;;;2.35;83.92;98339.62;1716333;83;20975;-49
2022/11/24 00:56:49;;;;;;;55.95;26.05;;;;;;;2.33;84.02;98344.02;1716221;83;20995;-53
2022/11/24 00:59:14;;;;;;;59.48;26.60;;;;;;;2.34;84.07;98343.97;1716226;83;21019;-49
2022/11/24 01:01:41;;;;;;;63.05;26.02;;;;;;;2.35;84.28;98346.11;1716362;83;21006;-44
2022/11/24 01:04:07;;;;;;;55.23;25.20;;;;;;;2.30;84.17;98349.72;1716569;82;21015;-48
2022/11/24 01:06:34;;;;;;;57.85;25.57;;;;;;;2.32;83.94;98344.94;1716372;83;21501;-52
2022/11/24 01:09:00;;;;;;;58.60;26.77;;;;;;;2.34;84.11;98343.13;1716512;83;21012;-48
2022/11/24 01:14:15;;;;;;;67.85;27.87;;;;;;;2.29;84.15;98350.64;1716307;83;21472;-50
2022/11/24 01:16:41;;;;;;;56.20;26.52;;;;;;;2.31;84.32;98353.19;1716371;83;21051;-54
2022/11/24 01:19:06;;;;;;;60.75;25.35;;;;;;;2.33;84.03;98359.59;1716312;83;21442;-46
2022/11/24 01:21:32;;;;;;;57.90;26.85;;;;;;;2.34;83.77;98353.52;1716291;83;21051;-49
2022/11/24 01:23:58;;;;;;;57.15;26.25;;;;;;;2.30;83.55;98354.91;1716305;83;21035;-47
2022/11/24 01:26:24;;;;;;;63.08;26.60;;;;;;;2.13;83.74;98349.52;1716223;83;21039;-49
2022/11/24 01:28:54;;;;;;;51.00;24.43;;;;;;;2.16;83.85;98363.64;1716322;83;21418;-45
2022/11/24 01:31:21;;;;;;;57.38;25.20;;;;;;;2.20;83.76;98360.48;1716240;83;21011;-51
2022/11/24 01:33:47;;;;;;;60.12;25.00;;;;;;;2.16;83.96;98364.94;1716340;83;21055;-49
2022/11/24 01:36:12;;;;;;;52.23;24.02;;;;;;;2.21;83.72;98360.44;1716322;83;21501;-49
2022/11/24 01:38:38;;;;;;;58.73;25.57;;;;;;;2.22;83.77;98354.36;1716299;83;21551;-46
2022/11/24 01:41:11;;;;;;;58.58;26.12;;;;;;;2.21;84.21;98360.44;1716238;83;20999;-45
2022/11/24 01:43:37;;;;;;;56.35;24.80;;;;;;;2.27;84.17;98352.88;1716297;83;21051;-47
2022/11/24 01:46:18;;;;;;;54.75;24.82;;;;;;;2.25;83.71;98351.64;1716481;83;21508;-43
2022/11/24 01:49:00;;;;;;;52.83;24.30;;;;;;;2.26;83.60;98353.80;1719454;83;21046;-46
2022/11/24 01:51:30;;;;;;;44.60;22.13;;;;;;;2.29;83.50;98351.94;1720923;83;21070;-49
2022/11/24 01:54:13;;;;;;;43.13;21.87;;;;;;;2.29;83.23;98356.27;1721129;83;21014;-50
2022/11/24 01:56:43;;;;;;;49.33;24.02;;;;;;;2.27;82.98;98355.05;1721176;83;21019;-46
2022/11/24 01:59:12;;;;;;;45.10;22.20;;;;;;;2.23;82.88;98357.80;1722422;81;21055;-44
2022/11/24 02:01:38;;;;;;;47.10;22.77;;;;;;;2.20;83.17;98356.17;1751633;82;20983;-43
2022/11/24 02:04:09;;;;;;;51.15;23.22;;;;;;;2.22;82.87;98351.77;1751737;82;21058;-50
2022/11/24 02:06:36;;;;;;;46.48;22.02;;;;;;;2.24;83.00;98355.16;1751746;82;21453;-49
2022/11/24 02:09:22;;;;;;;46.40;22.82;;;;;;;2.21;82.85;98359.60;1751845;81;20956;-42
2022/11/24 02:11:49;;;;;;;47.40;23.62;;;;;;;2.21;82.82;98365.62;1751920;82;21003;-51
2022/11/24 02:14:17;;;;;;;49.40;23.55;;;;;;;2.22;82.98;98362.58;1751547;82;21031;-52
2022/11/24 02:16:50;;;;;;;46.58;23.07;;;;;;;2.23;82.75;98365.12;1751675;82;21014;-42
2022/11/24 02:19:39;;;;;;;54.70;24.92;;;;;;;2.20;83.03;98362.66;1751732;82;20991;-52
2022/11/24 02:22:13;;;;;;;56.37;26.75;;;;;;;2.23;83.31;98372.06;1751774;82;21022;-45
2022/11/24 02:25:02;;;;;;;79.40;31.87;;;;;;;2.17;83.55;98379.62;1750207;81;21531;-44
2022/11/24 02:27:29;;;;;;;78.55;34.40;;;;;;;2.20;83.41;98374.76;1742813;82;20979;-44
2022/11/24 02:29:55;;;;;;;78.52;31.17;;;;;;;2.22;83.40;98380.30;1725480;82;20995;-52
2022/11/24 02:32:22;;;;;;;68.12;31.15;;;;;;;2.22;84.06;98380.73;1751716;82;20994;-49
2022/11/24 02:34:48;;;;;;;70.60;30.90;;;;;;;2.24;83.87;98379.80;1751905;82;21488;-45
2022/11/24 02:37:13;;;;;;;76.67;32.08;;;;;;;2.27;83.43;98369.75;1751627;82;20987;-42
2022/11/24 02:39:39;;;;;;;70.67;31.17;;;;;;;2.26;83.29;98374.55;1751709;82;20987;-43
2022/11/24 02:42:11;;;;;;;77.40;33.70;;;;;;;2.28;83.46;98364.97;1751680;81;20971;-48
2022/11/24 02:44:42;;;;;;;77.82;34.08;;;;;;;2.24;83.37;98365.98;1751677;82;20975;-42
2022/11/24 02:47:11;;;;;;;77.70;34.60;;;;;;;2.24;83.63;98373.31;1751661;82;20999;-49
2022/11/24 02:49:38;;;;;;;80.10;33.83;;;;;;;2.21;83.59;98369.52;1722393;82;21070;-53
2022/11/24 02:52:05;;;;;;;81.22;34.35;;;;;;;2.13;83.62;98370.27;1720939;83;21092;-47
2022/11/24 02:54:32;;;;;;;85.87;36.37;;;;;;;2.10;84.15;98371.66;1721505;83;20967;-46
2022/11/24 02:56:59;;;;;;;79.65;33.60;;;;;;;2.13;84.13;98370.27;1721139;83;21002;-53
2022/11/24 03:02:00;;;;;;;83.90;34.65;;;;;;;2.06;84.51;98368.78;1753196;80;21057;-48
2022/11/24 03:04:26;;;;;;;89.70;36.50;;;;;;;2.08;83.98;98369.58;1764022;81;20950;-46
2022/11/24 03:06:51;;;;;;;83.20;35.65;;;;;;;2.01;84.16;98365.50;1759066;81;20962;-42
2022/11/24 03:09:17;;;;;;;85.90;36.68;;;;;;;1.98;84.51;98364.31;1753511;82;20970;-45
2022/11/24 03:11:43;;;;;;;85.83;35.88;;;;;;;2.00;84.38;98363.80;1753636;82;21435;-51
2022/11/24 03:14:09;;;;;;;84.52;37.30;;;;;;;2.03;84.19;98360.64;1753596;82;21487;-45
2022/11/24 03:16:35;;;;;;;80.80;35.63;;;;;;;1.98;84.76;98357.36;1753586;82;21141;-43
2022/11/24 03:19:01;;;;;;;86.15;35.63;;;;;;;2.00;84.67;98358.61;1753541;82;20970;-53
2022/11/24 03:21:28;;;;;;;80.43;33.83;;;;;;;1.99;84.97;98353.05;1753767;82;20973;-48
2022/11/24 03:23:53;;;;;;;80.90;34.05;;;;;;;1.95;84.61;98356.63;1753516;82;20969;-44
2022/11/24 03:26:21;;;;;;;82.85;34.20;;;;;;;1.95;84.65;98362.69;1753625;82;21404;-48
2022/11/24 03:28:47;;;;;;;78.15;34.73;;;;;;;1.96;84.67;98359.63;1753616;82;20966;-51
2022/11/24 03:31:14;;;;;;;80.00;33.55;;;;;;;1.99;84.65;98353.05;1753545;82;20966;-41
2022/11/24 03:33:40;;;;;;;80.15;35.40;;;;;;;2.03;84.23;98354.63;1753544;82;20981;-49
2022/11/24 03:36:07;;;;;;;84.83;35.85;;;;;;;1.99;84.40;98356.94;1753047;82;21498;-50
2022/11/24 03:38:33;;;;;;;82.78;35.17;;;;;;;1.95;84.68;98359.22;1753438;82;21510;-44
2022/11/24 03:40:59;;;;;;;81.35;34.63;;;;;;;1.93;84.83;98358.00;1753608;82;21018;-47
2022/11/24 03:43:25;;;;;;;91.17;35.68;;;;;;;1.96;84.79;98360.92;1753717;82;21009;-48
2022/11/24 03:45:50;;;;;;;89.72;36.60;;;;;;;1.98;84.58;98366.90;1753528;82;21002;-50
2022/11/24 03:48:20;;;;;;;88.62;38.65;;;;;;;1.97;84.47;98369.95;1753541;82;20978;-49
2022/11/24 03:50:55;;;;;;;95.05;38.35;;;;;;;2.00;84.41;98371.15;1753460;82;21009;-45
2022/11/24 03:53:23;;;;;;;92.10;37.15;;;;;;;1.99;84.19;98374.62;1753572;82;20977;-47
2022/11/24 03:55:49;;;;;;;94.97;40.10;;;;;;;2.00;84.20;98370.28;1753536;82;20982;-45
2022/11/24 03:58:14;;;;;;;93.15;38.60;;;;;;;1.98;84.32;98368.20;1753613;82;21505;-47
2022/11/24 04:00:40;;;;;;;80.17;36.08;;;;;;;1.94;84.41;98375.23;1755005;81;21010;-47
2022/11/24 04:03:06;;;;;;;98.92;37.65;;;;;;;1.92;84.66;98375.74;1765610;81;21017;-54
2022/11/24 04:05:35;;;;;;;100.10;38.78;;;;;;;1.92;84.66;98375.74;1765524;81;20970;-44
2022/11/24 04:08:01;;;;;;;;;;;;;;;1.91;84.91;98381.39;1767958;81;20918;-48
2022/11/24 04:10:27;;;;;;;;;;;;;;;1.89;84.76;98388.38;1768183;81;20102;-52
2022/11/24 04:12:53;;;;;;;95.72;38.25;;;;;;;1.88;84.64;98387.97;1765597;81;20103;-44
2022/11/24 04:15:19;;;;;;;88.30;38.05;;;;;;;1.87;84.34;98388.88;1765652;81;21506;-48
2022/11/24 04:17:48;;;;;;;97.37;39.40;;;;;;;1.87;84.26;98386.72;1765601;81;20978;-43
2022/11/24 04:20:15;;;;;;;91.35;38.25;;;;;;;1.86;84.46;98392.82;1765671;81;20984;-45
2022/11/24 04:22:41;;;;;;;100.27;40.50;;;;;;;1.82;84.64;98393.37;1765852;81;21411;-56
2022/11/24 04:25:09;;;;;;;92.08;38.65;;;;;;;1.78;84.71;98402.13;1765652;81;20941;-54
2022/11/24 04:27:36;;;;;;;;;;;;;;;1.76;85.06;98400.05;1768217;81;21439;-50
2022/11/24 04:30:04;;;;;;;102.17;40.35;;;;;;;1.71;85.09;98394.16;1765741;81;20415;-48
2022/11/24 04:32:30;;;;;;;106.60;41.42;;;;;;;1.78;84.80;98396.95;1765676;81;21016;-53
2022/11/24 04:34:56;;;;;;;93.20;39.92;;;;;;;1.76;85.15;98397.45;1765846;81;21005;-51
2022/11/24 04:37:21;;;;;;;104.32;41.40;;;;;;;1.76;85.38;98400.05;1765867;81;21439;-52
2022/11/24 04:39:47;;;;;;;91.05;39.15;;;;;;;1.74;85.06;98400.55;1765737;81;21426;-55
2022/11/24 04:42:13;;;;;;;96.12;39.45;;;;;;;1.75;84.86;98408.73;1765832;81;20949;-50
2022/11/24 04:44:39;;;;;;;93.92;39.33;;;;;;;1.74;84.63;98404.44;1765771;81;20953;-46
2022/11/24 04:47:05;;;;;;;103.50;41.83;;;;;;;1.75;84.86;98408.73;1765669;81;21012;-51
2022/11/24 04:49:31;;;;;;;103.97;41.33;;;;;;;1.74;84.62;98412.21;1765836;81;20942;-50
2022/11/24 04:51:58;;;;;;;106.32;42.58;;;;;;;1.71;84.73;98404.53;1765753;81;20964;-46
2022/11/24 04:54:24;;;;;;;96.32;41.23;;;;;;;1.70;84.73;98401.56;1765969;81;21549;-56
2022/11/24 04:56:51;;;;;;;113.00;43.85;;;;;;;1.72;84.94;98403.19;1765747;81;20977;-51
2022/11/24 04:59:18;;;;;;;102.97;40.23;;;;;;;1.65;85.10;98409.93;1765896;81;21008;-50
2022/11/24 05:01:45;;;;;;;94.80;39.63;;;;;;;1.65;85.40;98410.77;1760141;81;21505;-50
2022/11/24 05:04:13;;;;;;;95.62;38.73;;;;;;;1.69;85.16;98416.70;1753850;82;20965;-55
2022/11/24 05:06:40;;;;;;;91.57;38.95;;;;;;;1.69;85.35;98413.68;1753622;82;20969;-50
2022/11/24 05:09:07;;;;;;;85.90;38.90;;;;;;;1.70;85.03;98418.41;1753917;82;20942;-45
2022/11/24 05:11:33;;;;;;;91.10;37.90;;;;;;;1.69;84.51;98418.86;1753789;82;20966;-51
2022/11/24 05:13:59;;;;;;;80.00;35.13;;;;;;;1.70;84.77;98423.59;1753646;82;20935;-43
2022/11/24 05:16:25;;;;;;;79.50;35.73;;;;;;;1.66;84.71;98430.62;1753887;82;20973;-50
2022/11/24 05:18:51;;;;;;;77.70;34.78;;;;;;;1.68;84.37;98432.70;1753679;82;21434;-42
2022/11/24 05:21:17;;;;;;;73.67;32.93;;;;;;;1.67;84.56;98428.86;1753680;82;20974;-46
2022/11/24 05:23:43;;;;;;;68.60;32.23;;;;;;;1.68;84.36;98427.98;1753642;82;21301;-48
2022/11/24 05:26:09;;;;;;;65.85;31.30;;;;;;;1.67;84.38;98436.22;1753586;82;21006;-43
2022/11/24 05:28:35;;;;;;;68.00;32.38;;;;;;;1.67;84.50;98441.40;1753619;82;20967;-49
2022/11/24 05:31:02;;;;;;;65.78;30.75;;;;;;;1.66;84.02;98437.56;1753445;82;20970;-49
2022/11/24 05:33:28;;;;;;;;;;;;;;;1.63;83.90;98440.23;1748995;82;21449;-48
2022/11/24 05:35:58;;;;;;;67.05;31.25;;;;;;;1.60;84.09;98440.33;1746704;81;20115;-43
2022/11/24 05:38:25;;;;;;;72.67;32.28;;;;;;;1.59;84.42;98442.54;1746305;81;21505;-49
2022/11/24 05:40:51;;;;;;;61.20;30.43;;;;;;;1.59;84.23;98446.42;1746664;82;21004;-45
2022/11/24 05:43:17;;;;;;;66.40;30.85;;;;;;;1.58;84.61;98444.72;1746333;82;21003;-53
2022/11/24 05:45:43;;;;;;;62.80;30.68;;;;;;;1.58;84.21;98446.02;1746297;81;21027;-43
2022/11/24 05:48:13;;;;;;;65.17;29.52;;;;;;;1.59;84.11;98455.04;1746360;82;21027;-52
2022/11/24 05:50:39;;;;;;;68.92;32.25;;;;;;;1.59;83.89;98456.33;1746474;81;20961;-51
2022/11/24 05:53:10;;;;;;;80.22;37.80;;;;;;;1.58;83.66;98453.79;1746411;82;20984;-55
2022/11/24 05:55:37;;;;;;;67.72;30.82;;;;;;;1.46;83.58;98459.77;1745914;82;20976;-46
2022/11/24 05:58:06;;;;;;;58.48;30.75;;;;;;;1.46;83.61;98467.54;1746407;81;20984;-50
2022/11/24 06:00:34;;;;;;;63.45;31.10;;;;;;;1.45;84.44;98468.42;1746361;82;20965;-45
2022/11/24 06:03:00;;;;;;;67.42;37.40;;;;;;;1.39;84.43;98467.33;1763772;81;21058;-47
2022/11/24 06:05:28;;;;;;;100.30;54.67;;;;;;;1.38;84.59;98468.22;1766288;81;21477;-47
2022/11/24 06:07:54;;;;;;;;;;;;;;;1.33;85.20;98474.02;1768879;81;20986;-48
2022/11/24 06:10:22;;;;;;;79.58;41.48;;;;;;;1.33;85.50;98481.78;1766137;81;20133;-48
2022/11/24 06:12:49;;;;;;;79.10;40.83;;;;;;;1.39;85.08;98475.56;1766204;81;21555;-50
2022/11/24 06:15:16;;;;;;;126.97;59.43;;;;;;;1.40;84.91;98479.41;1766456;81;20990;-50
2022/11/24 06:17:42;;;;;;;116.60;57.45;;;;;;;1.45;84.57;98482.67;1766350;81;20990;-48
2022/11/24 06:20:10;;;;;;;74.77;38.17;;;;;;;1.49;84.17;98488.19;1766192;81;21013;-50
2022/11/24 06:22:36;;;;;;;;;;;;;;;1.39;83.94;98488.06;1768840;81;21413;-48
2022/11/24 06:25:02;;;;;;;79.32;41.58;;;;;;;1.32;84.06;98482.66;1766128;81;20406;-44
2022/11/24 06:27:28;;;;;;;70.47;37.77;;;;;;;1.36;83.79;98488.59;1766447;81;21491;-44
2022/11/24 06:29:54;;;;;;;137.92;77.67;;;;;;;1.31;83.75;98490.02;1766271;81;21041;-55
2022/11/24 06:32:19;;;;;;;69.62;38.63;;;;;;;1.32;83.89;98493.02;1766205;81;21002;-48
2022/11/24 06:34:45;;;;;;;73.60;41.75;;;;;;;1.26;84.07;98495.81;1766172;81;21025;-48
2022/11/24 06:37:12;;;;;;;58.78;31.42;;;;;;;1.23;84.25;98495.90;1766174;81;20962;-56
2022/11/24 06:39:37;;;;;;;61.95;32.23;;;;;;;1.24;83.90;98500.20;1766367;81;20986;-46
2022/11/24 06:42:03;;;;;;;68.75;37.78;;;;;;;1.23;83.67;98498.03;1766206;81;21005;-53
2022/11/24 06:44:29;;;;;;;86.85;47.17;;;;;;;1.26;83.98;98501.83;1766182;81;20994;-50
2022/11/24 06:46:55;;;;;;;69.72;36.05;;;;;;;1.26;84.27;98498.41;1766302;81;20985;-43
2022/11/24 06:49:21;;;;;;;58.50;31.68;;;;;;;1.27;84.32;98505.27;1766175;81;21356;-50
2022/11/24 06:51:46;;;;;;;55.98;29.98;;;;;;;1.27;84.19;98507.39;1766178;81;20993;-44
2022/11/24 06:54:15;;;;;;;66.02;35.35;;;;;;;1.22;83.77;98517.50;1766109;81;21006;-49
2022/11/24 06:56:41;;;;;;;85.92;43.50;;;;;;;1.18;83.92;98514.15;1766163;81;21569;-48
2022/11/24 06:59:11;;;;;;;68.62;37.93;;;;;;;1.18;83.65;98518.03;1766240;81;21514;-54
2022/11/24 07:01:36;;;;;;;73.30;38.13;;;;;;;1.20;83.56;98517.99;1764521;80;21040;-53
2022/11/24 07:04:03;;;;;;;84.03;42.95;;;;;;;1.18;83.99;98526.26;1761557;81;21003;-50
2022/11/24 07:06:29;;;;;;;95.10;49.42;;;;;;;1.18;84.27;98519.78;1761793;81;21003;-48
2022/11/24 07:08:54;;;;;;;90.15;44.90;;;;;;;1.18;84.16;98515.90;1729212;81;21534;-44
2022/11/24 07:11:23;;;;;;;62.70;31.40;;;;;;;1.21;84.09;98523.59;1761506;81;21003;-48
2022/11/24 07:13:50;;;;;;;55.45;29.00;;;;;;;1.20;83.86;98520.16;1761570;81;21008;-48
2022/11/24 07:16:19;;;;;;;56.13;29.10;;;;;;;1.26;84.08;98525.59;1761738;81;21015;-48
2022/11/24 07:18:47;;;;;;;55.30;30.08;;;;;;;1.19;84.16;98534.45;1761547;81;21008;-41
2022/11/24 07:21:12;;;;;;;;;;;;;;;1.20;84.55;98530.94;1764290;81;21003;-49
2022/11/24 07:23:39;;;;;;;60.75;29.80;;;;;;;1.25;84.32;98526.48;1761630;81;20134;-51
2022/11/24 07:26:06;;;;;;;58.17;29.32;;;;;;;1.20;84.02;98530.94;1761532;81;21000;-51
2022/11/24 07:28:33;;;;;;;48.80;26.75;;;;;;;1.15;84.16;98533.69;1761567;81;21840;-44
2022/11/24 07:31:09;;;;;;;58.23;29.50;;;;;;;1.19;84.14;98535.73;1761749;81;20991;-47
2022/11/24 07:33:35;;;;;;;58.68;28.35;;;;;;;1.11;83.72;98539.40;1761544;81;21048;-44
2022/11/24 07:36:03;;;;;;;51.57;27.23;;;;;;;1.22;83.77;98539.09;1761780;81;21004;-54
2022/11/24 07:38:30;;;;;;;57.58;27.65;;;;;;;1.14;83.78;98535.41;1761540;81;22140;-48
2022/11/24 07:41:02;;;;;;;59.88;27.58;;;;;;;1.22;84.00;98545.56;1761715;81;20991;-48
2022/11/24 07:43:30;;;;;;;47.65;25.65;;;;;;;1.22;83.68;98545.56;1760570;80;21008;-45
2022/11/24 07:45:56;;;;;;;51.53;25.72;;;;;;;1.26;83.40;98539.84;1734248;81;21189;-52
2022/11/24 07:48:22;;;;;;;47.98;25.88;;;;;;;1.29;83.33;98547.50;1761495;81;20972;-52
2022/11/24 07:50:48;;;;;;;51.42;26.57;;;;;;;1.30;82.73;98542.73;1761625;81;21911;-49
2022/11/24 07:53:14;;;;;;;49.53;25.68;;;;;;;1.31;82.88;98540.53;1761612;81;21031;-54
2022/11/24 07:55:39;;;;;;;52.83;26.35;;;;;;;1.31;83.18;98545.71;1761638;81;21469;-43
2022/11/24 07:58:05;;;;;;;53.50;28.67;;;;;;;1.29;83.70;98548.80;1761594;81;21505;-46
2022/11/24 08:00:31;;;;;;;54.10;28.07;;;;;;;1.39;83.28;98546.34;1761537;81;21016;-56
2022/11/24 08:02:57;;;;;;;50.00;26.42;;;;;;;1.34;82.81;98550.81;1753743;81;21023;-51
2022/11/24 08:05:23;;;;;;;49.45;25.57;;;;;;;1.31;82.81;98550.89;1749780;81;21019;-47
2022/11/24 08:07:48;;;;;;;45.23;24.63;;;;;;;1.10;82.39;98546.75;1749983;82;20983;-48
2022/11/24 08:10:15;;;;;;;50.50;26.90;;;;;;;1.08;82.86;98546.41;1749969;81;20979;-41
2022/11/24 08:12:41;;;;;;;50.43;26.80;;;;;;;1.12;82.88;98552.73;1750090;81;21046;-48
2022/11/24 08:15:08;;;;;;;130.87;31.65;;;;;;;0.95;83.02;98547.20;1749947;81;20979;-50
2022/11/24 08:17:35;;;;;;;54.10;25.72;;;;;;;0.93;83.27;98555.01;1750042;81;21030;-45
2022/11/24 08:20:01;;;;;;;43.75;23.90;;;;;;;0.97;83.87;98553.64;1750015;81;20991;-55
2022/11/24 08:22:26;;;;;;;47.38;24.87;;;;;;;1.06;83.50;98556.80;1750068;81;21472;-47
2022/11/24 08:24:52;;;;;;;49.65;26.17;;;;;;;1.11;83.42;98558.82;1749967;82;20995;-45
2022/11/24 08:27:19;;;;;;;64.22;32.33;;;;;;;1.17;83.49;98564.72;1749984;82;21026;-49
2022/11/24 08:29:44;;;;;;;51.42;27.27;;;;;;;1.18;83.46;98568.99;1749937;82;21002;-47
2022/11/24 08:32:11;;;;;;;46.58;26.48;;;;;;;1.18;83.29;98562.52;1749846;82;21003;-51
2022/11/24 08:34:37;;;;;;;45.90;25.72;;;;;;;1.20;82.79;98571.08;1750194;82;20986;-54
2022/11/24 08:37:04;;;;;;;53.30;29.77;;;;;;;1.25;82.81;98566.63;1749997;82;20995;-46
2022/11/24 08:39:32;;;;;;;58.60;32.93;;;;;;;1.21;82.71;98567.62;1750192;82;20995;-48
2022/11/24 08:41:59;;;;;;;51.28;27.02;;;;;;;1.28;82.96;98566.55;1749917;81;21451;-44
2022/11/24 08:44:27;;;;;;;47.85;25.08;;;;;;;1.25;82.54;98571.35;1749913;82;21011;-48
2022/11/24 08:46:53;;;;;;;48.92;25.57;;;;;;;1.30;83.14;98575.12;1749677;81;21562;-52
2022/11/24 08:49:20;;;;;;;46.93;25.63;;;;;;;1.32;82.83;98574.63;1749727;82;21034;-44
2022/11/24 08:51:47;;;;;;;56.68;31.42;;;;;;;1.33;82.63;98577.17;1749901;81;20979;-52
2022/11/24 08:54:14;;;;;;;66.55;37.28;;;;;;;1.36;82.64;98573.63;1756278;82;20979;-46
2022/11/24 08:56:40;;;;;;;61.07;31.10;;;;;;;1.35;82.82;98573.25;1757101;82;21022;-48
2022/11/24 08:59:06;;;;;;;45.88;26.15;;;;;;;1.33;83.18;98577.63;1757001;82;21261;-48
2022/11/24 09:01:32;;;;;;;48.70;25.85;;;;;;;1.40;82.95;98573.97;1757020;82;21100;-48
2022/11/24 09:03:59;;;;;;;44.58;25.00;;;;;;;1.36;83.09;98583.99;1756864;81;20984;-46
2022/11/24 09:06:29;;;;;;;54.00;26.25;;;;;;;1.37;82.83;98584.41;1760334;81;21594;-50
2022/11/24 09:08:56;;;;;;;48.25;25.85;;;;;;;1.38;82.55;98583.95;1760130;81;21030;-53
2022/11/24 09:11:23;;;;;;;44.05;24.85;;;;;;;1.34;82.51;98583.19;1760252;81;21022;-44
2022/11/24 09:13:49;;;;;;;45.15;24.37;;;;;;;1.30;82.21;98586.77;1760188;81;21522;-48
2022/11/24 09:16:23;;;;;;;47.03;24.40;;;;;;;1.32;82.96;98590.16;1760564;81;20987;-48
2022/11/24 09:19:02;;;;;;;43.92;23.98;;;;;;;1.30;82.68;98584.19;1760315;81;20998;-49
2022/11/24 09:21:32;;;;;;;49.13;26.02;;;;;;;1.30;83.17;98591.95;1758980;81;21007;-49
2022/11/24 09:23:58;;;;;;;55.75;28.30;;;;;;;1.28;83.26;98588.56;1760131;81;20971;-46
2022/11/24 09:26:28;;;;;;;55.88;28.55;;;;;;;1.30;83.39;98582.89;1760238;81;20990;-55
2022/11/24 09:28:57;;;;;;;53.05;27.73;;;;;;;1.35;83.54;98577.13;1760357;81;20983;-47
2022/11/24 09:31:27;;;;;;;53.13;28.92;;;;;;;1.39;83.32;98577.89;1760082;81;20978;-46
2022/11/24 09:33:54;;;;;;;60.92;30.88;;;;;;;1.28;83.42;98580.34;1760389;81;21874;-47
2022/11/24 09:36:20;;;;;;;56.08;29.45;;;;;;;1.22;83.39;98582.25;1760622;81;20971;-44
2022/11/24 09:38:46;;;;;;;53.00;28.80;;;;;;;1.22;83.86;98579.23;1760346;81;20998;-54
2022/11/24 09:41:50;;;;;;;44.90;24.82;;;;;;;1.24;84.21;98575.31;1760429;81;21500;-48
2022/11/24 09:44:33;;;;;;;44.67;24.60;;;;;;;1.24;83.72;98583.08;1760370;81;21042;-50
2022/11/24 09:47:33;;;;;;;46.77;26.07;;;;;;;1.27;83.16;98584.27;1760357;81;21038;-49
2022/11/24 09:50:33;;;;;;;51.65;28.32;;;;;;;1.29;83.37;98583.34;1760377;81;21007;-55
2022/11/24 09:53:13;;;;;;;49.80;27.10;;;;;;;1.33;83.88;98588.83;1759475;81;21014;-46
2022/11/24 09:55:44;;;;;;;57.48;30.75;;;;;;;1.38;83.71;98585.25;1759653;81;20986;-49
2022/11/24 09:58:30;;;;;;;57.43;30.43;;;;;;;1.41;84.17;98588.59;1760108;81;21038;-52
2022/11/24 10:00:57;;;;;;;61.53;29.23;;;;;;;1.49;84.17;98585.34;1760085;81;20998;-47
2022/11/24 10:03:38;;;;;;;50.23;27.50;;;;;;;1.53;84.01;98583.52;1763079;81;21046;-50
2022/11/24 10:06:15;;;;;;;61.53;31.05;;;;;;;1.52;84.25;98585.69;1765011;81;21821;-50
2022/11/24 10:09:09;;;;;;;55.78;30.72;;;;;;;1.47;83.67;98585.81;1764546;81;20998;-47
2022/11/24 10:11:46;;;;;;;50.45;26.25;;;;;;;1.51;83.68;98595.64;1772833;80;21029;-48
2022/11/24 10:14:47;;;;;;;48.53;26.97;;;;;;;1.48;83.52;98591.41;1765683;81;21017;-53
2022/11/24 10:17:39;;;;;;;47.23;25.50;;;;;;;1.36;83.46;98598.24;1765431;81;20950;-48
2022/11/24 10:20:29;;;;;;;46.40;25.48;;;;;;;1.38;83.83;98600.34;1765672;81;20950;-47
2022/11/24 10:23:09;;;;;;;47.88;25.52;;;;;;;1.33;84.16;98606.13;1763615;81;21412;-48
2022/11/24 10:25:59;;;;;;;51.33;25.82;;;;;;;1.33;84.06;98600.94;1765424;81;21676;-51
2022/11/24 10:28:42;;;;;;;56.80;28.35;;;;;;;1.30;84.26;98604.91;1763554;81;20970;-50
2022/11/24 10:31:22;;;;;;;48.52;25.05;;;;;;;1.27;84.62;98592.88;1765242;81;20989;-44
2022/11/24 10:33:49;;;;;;;46.80;25.15;;;;;;;1.32;84.41;98601.82;1765244;81;21602;-44
2022/11/24 10:36:26;;;;;;;42.67;23.85;;;;;;;1.27;84.58;98595.92;1765553;81;20934;-53
2022/11/24 10:39:01;;;;;;;;;;;;;;;1.24;85.29;98588.26;1766533;81;21005;-45
2022/11/24 10:41:45;;;;;;;43.30;22.70;;;;;;;1.22;85.74;98592.61;1765349;81;20127;-47
2022/11/24 10:44:14;;;;;;;44.13;24.82;;;;;;;1.30;85.09;98585.02;1771740;81;21008;-48
2022/11/24 10:46:40;;;;;;;38.05;22.10;;;;;;;1.34;85.12;98589.67;1777426;80;20983;-49
2022/11/24 10:49:11;;;;;;;45.85;23.77;;;;;;;1.40;84.48;98592.10;1777685;80;21017;-51
2022/11/24 10:52:00;;;;;;;41.60;21.45;;;;;;;1.34;85.01;98588.38;1777116;80;21441;-50
2022/11/24 10:54:27;;;;;;;40.80;23.15;;;;;;;1.42;84.49;98598.50;1777942;81;21031;-51
2022/11/24 10:56:54;;;;;;;45.23;23.67;;;;;;;1.32;84.58;98594.05;1777857;81;20963;-54
2022/11/24 10:59:36;;;;;;;44.20;24.12;;;;;;;1.27;84.52;98599.80;1777423;80;21026;-51
2022/11/24 11:02:22;;;;;;;39.40;21.25;;;;;;;1.33;84.88;98591.87;1777590;81;20989;-47
2022/11/24 11:04:48;;;;;;;43.33;23.03;;;;;;;1.18;84.26;98591.00;1777612;80;21023;-56
2022/11/24 11:07:23;;;;;;;45.35;23.57;;;;;;;1.10;84.87;98591.23;1777631;80;21630;-45
2022/11/24 11:09:49;;;;;;;47.33;25.92;;;;;;;1.10;84.87;98591.23;1777537;80;20940;-46
2022/11/24 11:12:22;;;;;;;46.58;25.30;;;;;;;1.13;85.07;98605.39;1777670;80;21492;-43
2022/11/24 11:14:49;;;;;;;51.30;29.98;;;;;;;1.05;85.31;98595.23;1777563;81;20999;-49
2022/11/24 11:17:35;;;;;;;57.30;30.37;;;;;;;0.98;85.62;98593.70;1778042;80;21041;-50
2022/11/24 11:20:18;;;;;;;49.80;27.67;;;;;;;1.02;86.30;98599.22;1776927;81;20976;-54
2022/11/24 11:22:47;;;;;;;57.80;30.27;;;;;;;1.08;86.14;98599.49;1777798;81;20995;-51
2022/11/24 11:25:20;;;;;;;55.15;28.95;;;;;;;1.14;86.99;98600.14;1773591;80;20990;-48
2022/11/24 11:27:47;;;;;;;55.70;27.30;;;;;;;1.06;86.14;98596.94;1765299;80;21095;-48
2022/11/24 11:30:30;;;;;;;42.65;23.65;;;;;;;0.82;85.79;98600.19;1765704;80;20962;-48
2022/11/24 11:32:59;;;;;;;57.78;33.25;;;;;;;0.78;86.05;98603.30;1773222;80;20922;-47
2022/11/24 11:35:28;;;;;;;54.73;30.23;;;;;;;0.72;86.36;98603.47;1755843;81;20922;-45
2022/11/24 11:38:00;;;;;;;41.58;24.55;;;;;;;0.83;86.61;98600.59;1773870;80;20936;-48
2022/11/24 11:40:29;;;;;;;39.42;22.45;;;;;;;0.98;86.16;98603.21;1739895;81;20965;-48